createdAt,value
2022-08-03T00:05:05.354Z,52.52
2022-08-03T00:35:14.784Z,53.21
2022-08-03T01:05:31.197Z,55.54
2022-08-03T01:35:38.565Z,56.19
2022-08-03T02:05:42.953Z,57.39
2022-08-03T02:35:48.371Z,58.35
2022-08-03T03:05:57.533Z,59.66
2022-08-03T03:36:01.935Z,60.93
2022-08-03T04:06:23.659Z,61.75
2022-08-03T04:36:28.977Z,61.88
2022-08-03T05:06:33.006Z,61.37
2022-08-03T05:36:37.322Z,61.99
2022-08-03T06:06:42.092Z,61.65
2022-08-03T06:36:48.437Z,57.96
2022-08-03T07:06:52.487Z,54.65
2022-08-03T07:36:58.068Z,52.74
2022-08-03T08:07:02.280Z,51.15
2022-08-03T08:37:06.587Z,43.95
2022-08-03T09:07:20.055Z,32.27
2022-08-03T09:38:08.505Z,27.39
2022-08-03T10:07:50.789Z,24.73
2022-08-03T10:37:59.274Z,22.58
2022-08-03T11:08:30.064Z,23.39
2022-08-03T11:38:34.457Z,22.51
2022-08-03T12:08:38.629Z,23.20
2022-08-03T12:38:43.755Z,21.67
2022-08-03T13:08:48.843Z,27.08
2022-08-03T13:38:52.986Z,24.85
2022-08-03T14:09:00.545Z,21.41
2022-08-03T14:39:05.029Z,23.25
2022-08-03T15:09:23.692Z,21.81
2022-08-03T15:39:28.231Z,24.53
2022-08-03T16:09:43.291Z,22.48
2022-08-03T16:39:48.223Z,24.39
2022-08-03T17:09:52.445Z,26.04
2022-08-03T17:40:01.312Z,29.38
2022-08-03T18:10:11.460Z,29.92
2022-08-03T18:40:20.970Z,33.92
2022-08-03T19:10:27.698Z,35.71
2022-08-03T19:40:34.457Z,36.88
2022-08-03T20:10:38.627Z,39.00
2022-08-03T20:40:43.132Z,39.26
2022-08-03T21:10:47.593Z,40.33
2022-08-03T21:40:54.591Z,41.75
2022-08-03T22:10:58.714Z,42.96
2022-08-03T22:41:09.088Z,44.09
2022-08-03T23:11:14.179Z,45.17
2022-08-03T23:41:19.355Z,44.96
